sensor_id;sensor_type;location;lat;lon;timestamp;pressure;altitude;pressure_sealevel;temperature;humidity
43364;BME280;40636;52.424;-1.948;2024-03-02T00:00:11;97498.97;;;4.23;85.06
43364;BME280;40636;52.424;-1.948;2024-03-02T00:05:10;97506.63;;;4.25;84.89
43364;BME280;40636;52.424;-1.948;2024-03-02T00:07:41;97496.31;;;4.26;85.19
43364;BME280;40636;52.424;-1.948;2024-03-02T00:10:10;97492.81;;;4.29;85.30
43364;BME280;40636;52.424;-1.948;2024-03-02T00:12:39;97491.06;;;4.31;85.41
43364;BME280;40636;52.424;-1.948;2024-03-02T00:18:18;97488.47;;;4.32;85.35
43364;BME280;40636;52.424;-1.948;2024-03-02T00:20:45;97485.00;;;4.33;85.15
43364;BME280;40636;52.424;-1.948;2024-03-02T00:23:16;97491.78;;;4.36;85.36
43364;BME280;40636;52.424;-1.948;2024-03-02T00:25:48;97493.53;;;4.35;85.17
43364;BME280;40636;52.424;-1.948;2024-03-02T00:28:26;97496.94;;;4.36;85.19
43364;BME280;40636;52.424;-1.948;2024-03-02T00:33:34;97486.56;;;4.39;85.40
43364;BME280;40636;52.424;-1.948;2024-03-02T00:36:03;97489.16;;;4.39;85.17
43364;BME280;40636;52.424;-1.948;2024-03-02T00:38:31;97483.16;;;4.38;85.30
43364;BME280;40636;52.424;-1.948;2024-03-02T00:41:07;97486.63;;;4.37;85.06
43364;BME280;40636;52.424;-1.948;2024-03-02T00:44:11;97481.56;;;4.34;84.73
43364;BME280;40636;52.424;-1.948;2024-03-02T00:46:40;97493.53;;;4.35;85.43
43364;BME280;40636;52.424;-1.948;2024-03-02T00:51:46;97484.13;;;4.34;85.08
43364;BME280;40636;52.424;-1.948;2024-03-02T00:54:19;97480.66;;;4.35;84.90
43364;BME280;40636;52.424;-1.948;2024-03-02T00:56:47;97482.44;;;4.33;84.85
43364;BME280;40636;52.424;-1.948;2024-03-02T00:59:15;97487.63;;;4.32;84.90
43364;BME280;40636;52.424;-1.948;2024-03-02T01:01:42;97479.91;;;4.32;84.98
43364;BME280;40636;52.424;-1.948;2024-03-02T01:04:09;97489.25;;;4.34;84.87
43364;BME280;40636;52.424;-1.948;2024-03-02T01:06:36;97481.56;;;4.34;85.20
43364;BME280;40636;52.424;-1.948;2024-03-02T01:09:03;97473.88;;;4.33;85.09
43364;BME280;40636;52.424;-1.948;2024-03-02T01:11:31;97473.03;;;4.32;84.73
43364;BME280;40636;52.424;-1.948;2024-03-02T01:13:58;97474.81;;;4.30;85.11
43364;BME280;40636;52.424;-1.948;2024-03-02T01:16:25;97474.00;;;4.28;84.92
43364;BME280;40636;52.424;-1.948;2024-03-02T01:18:51;97466.28;;;4.28;84.99
43364;BME280;40636;52.424;-1.948;2024-03-02T01:21:18;97471.44;;;4.28;85.27
43364;BME280;40636;52.424;-1.948;2024-03-02T01:23:45;97468.84;;;4.28;85.22
43364;BME280;40636;52.424;-1.948;2024-03-02T01:26:12;97471.38;;;4.30;85.59
43364;BME280;40636;52.424;-1.948;2024-03-02T01:28:39;97477.38;;;4.30;85.40
43364;BME280;40636;52.424;-1.948;2024-03-02T01:31:06;97466.22;;;4.31;85.43
43364;BME280;40636;52.424;-1.948;2024-03-02T01:33:33;97462.75;;;4.32;85.42
43364;BME280;40636;52.424;-1.948;2024-03-02T01:36:00;97463.66;;;4.31;85.37
43364;BME280;40636;52.424;-1.948;2024-03-02T01:38:27;97471.38;;;4.30;85.32
43364;BME280;40636;52.424;-1.948;2024-03-02T01:40:55;97464.63;;;4.26;85.41
43364;BME280;40636;52.424;-1.948;2024-03-02T01:43:23;97461.19;;;4.27;85.50
43364;BME280;40636;52.424;-1.948;2024-03-02T01:45:50;97463.84;;;4.24;85.58
43364;BME280;40636;52.424;-1.948;2024-03-02T01:48:17;97464.72;;;4.23;85.59
43364;BME280;40636;52.424;-1.948;2024-03-02T01:50:44;97469.84;;;4.23;85.57
43364;BME280;40636;52.424;-1.948;2024-03-02T01:53:11;97464.91;;;4.15;85.18
43364;BME280;40636;52.424;-1.948;2024-03-02T01:55:38;97461.63;;;4.08;85.19
43364;BME280;40636;52.424;-1.948;2024-03-02T01:58:04;97458.25;;;4.06;84.94
43364;BME280;40636;52.424;-1.948;2024-03-02T02:00:32;97463.41;;;4.06;85.56
43364;BME280;40636;52.424;-1.948;2024-03-02T02:02:59;97452.28;;;4.04;85.27
43364;BME280;40636;52.424;-1.948;2024-03-02T02:05:26;97453.16;;;4.03;85.12
43364;BME280;40636;52.424;-1.948;2024-03-02T02:07:53;97455.78;;;4.02;85.73
43364;BME280;40636;52.424;-1.948;2024-03-02T02:10:19;97453.22;;;4.02;85.53
43364;BME280;40636;52.424;-1.948;2024-03-02T02:12:46;97451.53;;;4.01;85.76
43364;BME280;40636;52.424;-1.948;2024-03-02T02:15:27;97443.03;;;3.97;85.77
43364;BME280;40636;52.424;-1.948;2024-03-02T02:17:57;97441.44;;;3.93;85.47
43364;BME280;40636;52.424;-1.948;2024-03-02T02:20:26;97442.31;;;3.92;86.02
43364;BME280;40636;52.424;-1.948;2024-03-02T02:23:03;97445.78;;;3.90;85.50
43364;BME280;40636;52.424;-1.948;2024-03-02T02:25:32;97441.63;;;3.86;85.64
43364;BME280;40636;52.424;-1.948;2024-03-02T02:27:59;97439.94;;;3.85;85.83
43364;BME280;40636;52.424;-1.948;2024-03-02T02:30:27;97433.13;;;3.82;85.78
43364;BME280;40636;52.424;-1.948;2024-03-02T02:32:56;97427.16;;;3.81;86.36
43364;BME280;40636;52.424;-1.948;2024-03-02T02:35:23;97428.84;;;3.83;86.00
43364;BME280;40636;52.424;-1.948;2024-03-02T02:37:55;97423.72;;;3.83;86.13
43364;BME280;40636;52.424;-1.948;2024-03-02T02:40:23;97430.53;;;3.84;85.94
43364;BME280;40636;52.424;-1.948;2024-03-02T02:42:50;97438.25;;;3.84;86.39
43364;BME280;40636;52.424;-1.948;2024-03-02T02:45:20;97433.22;;;3.79;86.21
43364;BME280;40636;52.424;-1.948;2024-03-02T02:47:47;97429.88;;;3.75;86.46
43364;BME280;40636;52.424;-1.948;2024-03-02T02:50:14;97423.94;;;3.73;85.96
43364;BME280;40636;52.424;-1.948;2024-03-02T02:52:42;97429.94;;;3.72;86.21
43364;BME280;40636;52.424;-1.948;2024-03-02T02:55:11;97427.38;;;3.72;86.30
43364;BME280;40636;52.424;-1.948;2024-03-02T02:57:41;97429.09;;;3.72;86.46
43364;BME280;40636;52.424;-1.948;2024-03-02T03:02:38;97434.94;;;3.78;86.25
43364;BME280;40636;52.424;-1.948;2024-03-02T03:05:06;97425.47;;;3.80;86.52
43364;BME280;40636;52.424;-1.948;2024-03-02T03:07:33;97429.72;;;3.81;86.60
43364;BME280;40636;52.424;-1.948;2024-03-02T03:10:01;97418.53;;;3.84;86.66
43364;BME280;40636;52.424;-1.948;2024-03-02T03:12:30;97415.91;;;3.87;86.79
43364;BME280;40636;52.424;-1.948;2024-03-02T03:15:00;97412.50;;;3.87;86.51
43364;BME280;40636;52.424;-1.948;2024-03-02T03:17:28;97407.34;;;3.87;86.57
43364;BME280;40636;52.424;-1.948;2024-03-02T03:19:55;97411.72;;;3.83;86.47
43364;BME280;40636;52.424;-1.948;2024-03-02T03:22:22;97403.09;;;3.86;86.54
43364;BME280;40636;52.424;-1.948;2024-03-02T03:24:49;97408.97;;;3.91;86.59
43364;BME280;40636;52.424;-1.948;2024-03-02T03:27:16;97403.00;;;3.90;86.85
43364;BME280;40636;52.424;-1.948;2024-03-02T03:29:42;97405.56;;;3.90;86.60
43364;BME280;40636;52.424;-1.948;2024-03-02T03:32:10;97393.63;;;3.88;86.50
43364;BME280;40636;52.424;-1.948;2024-03-02T03:34:36;97389.34;;;3.88;86.50
43364;BME280;40636;52.424;-1.948;2024-03-02T03:37:03;97391.03;;;3.89;86.65
43364;BME280;40636;52.424;-1.948;2024-03-02T03:39:30;97394.41;;;3.91;86.28
43364;BME280;40636;52.424;-1.948;2024-03-02T03:41:57;97380.75;;;3.89;86.41
43364;BME280;40636;52.424;-1.948;2024-03-02T03:44:24;97385.13;;;3.86;86.66
43364;BME280;40636;52.424;-1.948;2024-03-02T03:46:51;97383.41;;;3.86;86.55
43364;BME280;40636;52.424;-1.948;2024-03-02T03:49:18;97386.84;;;3.85;86.67
43364;BME280;40636;52.424;-1.948;2024-03-02T03:51:45;97385.97;;;3.86;86.79
43364;BME280;40636;52.424;-1.948;2024-03-02T03:54:12;97385.94;;;3.88;86.35
43364;BME280;40636;52.424;-1.948;2024-03-02T03:56:39;97373.97;;;3.87;86.57
43364;BME280;40636;52.424;-1.948;2024-03-02T03:59:05;97373.09;;;3.88;86.52
43364;BME280;40636;52.424;-1.948;2024-03-02T04:01:32;97381.59;;;3.90;86.67
43364;BME280;40636;52.424;-1.948;2024-03-02T04:04:00;97377.38;;;3.87;86.44
43364;BME280;40636;52.424;-1.948;2024-03-02T04:06:30;97376.53;;;3.87;86.43
43364;BME280;40636;52.424;-1.948;2024-03-02T04:08:57;97374.91;;;3.84;86.65
43364;BME280;40636;52.424;-1.948;2024-03-02T04:11:24;97370.59;;;3.85;86.66
43364;BME280;40636;52.424;-1.948;2024-03-02T04:13:51;97366.31;;;3.85;86.54
43364;BME280;40636;52.424;-1.948;2024-03-02T04:16:19;97375.69;;;3.86;86.60
43364;BME280;40636;52.424;-1.948;2024-03-02T04:18:46;97373.16;;;3.85;86.46
43364;BME280;40636;52.424;-1.948;2024-03-02T04:21:13;97375.84;;;3.80;86.73
43364;BME280;40636;52.424;-1.948;2024-03-02T04:23:40;97365.59;;;3.80;87.02
43364;BME280;40636;52.424;-1.948;2024-03-02T04:26:07;97371.56;;;3.80;86.79
43364;BME280;40636;52.424;-1.948;2024-03-02T04:28:34;97369.06;;;3.77;86.32
43364;BME280;40636;52.424;-1.948;2024-03-02T04:31:00;97364.81;;;3.76;86.66
43364;BME280;40636;52.424;-1.948;2024-03-02T04:33:27;97367.38;;;3.76;86.47
43364;BME280;40636;52.424;-1.948;2024-03-02T04:35:54;97377.69;;;3.75;86.54
43364;BME280;40636;52.424;-1.948;2024-03-02T04:38:21;97370.03;;;3.73;86.73
43364;BME280;40636;52.424;-1.948;2024-03-02T04:40:48;97365.81;;;3.71;86.50
43364;BME280;40636;52.424;-1.948;2024-03-02T04:43:15;97362.41;;;3.70;86.85
43364;BME280;40636;52.424;-1.948;2024-03-02T04:45:43;97368.34;;;3.72;86.33
43364;BME280;40636;52.424;-1.948;2024-03-02T04:48:10;97371.78;;;3.71;86.36
43364;BME280;40636;52.424;-1.948;2024-03-02T04:50:37;97368.41;;;3.69;86.99
43364;BME280;40636;52.424;-1.948;2024-03-02T04:53:03;97372.69;;;3.69;87.14
43364;BME280;40636;52.424;-1.948;2024-03-02T04:55:30;97364.16;;;3.68;86.77
43364;BME280;40636;52.424;-1.948;2024-03-02T04:58:06;97377.78;;;3.70;86.77
43364;BME280;40636;52.424;-1.948;2024-03-02T05:00:34;97368.31;;;3.74;86.88
43364;BME280;40636;52.424;-1.948;2024-03-02T05:03:01;97372.63;;;3.72;86.83
43364;BME280;40636;52.424;-1.948;2024-03-02T05:05:28;97369.28;;;3.68;86.62
43364;BME280;40636;52.424;-1.948;2024-03-02T05:07:55;97365.88;;;3.68;86.65
43364;BME280;40636;52.424;-1.948;2024-03-02T05:10:22;97364.16;;;3.68;86.76
43364;BME280;40636;52.424;-1.948;2024-03-02T05:12:49;97369.28;;;3.68;86.55
43364;BME280;40636;52.424;-1.948;2024-03-02T05:15:27;97366.69;;;3.70;86.75
43364;BME280;40636;52.424;-1.948;2024-03-02T05:17:54;97365.78;;;3.72;86.49
43364;BME280;40636;52.424;-1.948;2024-03-02T05:20:21;97359.81;;;3.70;87.16
43364;BME280;40636;52.424;-1.948;2024-03-02T05:22:48;97360.75;;;3.68;86.83
43364;BME280;40636;52.424;-1.948;2024-03-02T05:25:16;97359.06;;;3.67;86.93
43364;BME280;40636;52.424;-1.948;2024-03-02T05:27:43;97356.53;;;3.65;87.00
43364;BME280;40636;52.424;-1.948;2024-03-02T05:30:10;97363.34;;;3.66;86.92
43364;BME280;40636;52.424;-1.948;2024-03-02T05:32:37;97359.09;;;3.65;87.05
43364;BME280;40636;52.424;-1.948;2024-03-02T05:35:04;97357.44;;;3.63;87.19
43364;BME280;40636;52.424;-1.948;2024-03-02T05:37:31;97360.84;;;3.63;87.15
43364;BME280;40636;52.424;-1.948;2024-03-02T05:39:58;97366.03;;;3.62;87.19
43364;BME280;40636;52.424;-1.948;2024-03-02T05:42:26;97366.06;;;3.60;86.82
43364;BME280;40636;52.424;-1.948;2024-03-02T05:44:53;97363.59;;;3.56;87.05
43364;BME280;40636;52.424;-1.948;2024-03-02T05:47:20;97365.47;;;3.49;87.08
43364;BME280;40636;52.424;-1.948;2024-03-02T05:49:47;97361.22;;;3.46;86.85
43364;BME280;40636;52.424;-1.948;2024-03-02T05:52:14;97360.53;;;3.40;87.01
43364;BME280;40636;52.424;-1.948;2024-03-02T05:54:41;97364.97;;;3.33;86.66
43364;BME280;40636;52.424;-1.948;2024-03-02T05:57:08;97357.41;;;3.27;87.02
43364;BME280;40636;52.424;-1.948;2024-03-02T05:59:56;97358.34;;;3.23;86.76
43364;BME280;40636;52.424;-1.948;2024-03-02T06:02:23;97352.44;;;3.20;87.04
43364;BME280;40636;52.424;-1.948;2024-03-02T06:04:50;97349.06;;;3.17;86.51
43364;BME280;40636;52.424;-1.948;2024-03-02T06:07:17;97342.38;;;3.10;86.31
43364;BME280;40636;52.424;-1.948;2024-03-02T06:09:43;97337.28;;;3.09;86.88
43364;BME280;40636;52.424;-1.948;2024-03-02T06:12:11;97330.56;;;3.05;86.89
43364;BME280;40636;52.424;-1.948;2024-03-02T06:14:38;97334.03;;;3.02;87.03
43364;BME280;40636;52.424;-1.948;2024-03-02T06:17:05;97327.28;;;2.98;86.97
43364;BME280;40636;52.424;-1.948;2024-03-02T06:19:31;97316.22;;;2.96;86.66
43364;BME280;40636;52.424;-1.948;2024-03-02T06:21:58;97317.97;;;2.94;86.68
43364;BME280;40636;52.424;-1.948;2024-03-02T06:24:26;97318.00;;;2.93;87.11
43364;BME280;40636;52.424;-1.948;2024-03-02T06:26:53;97318.84;;;2.93;86.92
43364;BME280;40636;52.424;-1.948;2024-03-02T06:29:19;97311.94;;;2.97;87.63
43364;BME280;40636;52.424;-1.948;2024-03-02T06:31:46;97313.63;;;2.98;87.56
43364;BME280;40636;52.424;-1.948;2024-03-02T06:34:15;97313.69;;;2.95;87.36
43364;BME280;40636;52.424;-1.948;2024-03-02T06:36:42;97321.34;;;2.96;87.47
43364;BME280;40636;52.424;-1.948;2024-03-02T06:39:09;97315.34;;;2.97;87.34
43364;BME280;40636;52.424;-1.948;2024-03-02T06:41:36;97324.75;;;2.97;87.91
43364;BME280;40636;52.424;-1.948;2024-03-02T06:44:04;97316.19;;;2.98;87.63
43364;BME280;40636;52.424;-1.948;2024-03-02T06:46:30;97314.47;;;2.98;87.79
43364;BME280;40636;52.424;-1.948;2024-03-02T06:48:57;97323.84;;;2.99;88.11
43364;BME280;40636;52.424;-1.948;2024-03-02T06:51:24;97321.34;;;2.96;88.24
43364;BME280;40636;52.424;-1.948;2024-03-02T06:53:51;97317.09;;;2.95;87.94
43364;BME280;40636;52.424;-1.948;2024-03-02T06:56:18;97315.44;;;2.93;88.00
43364;BME280;40636;52.424;-1.948;2024-03-02T06:58:45;97318.84;;;2.93;87.77
43364;BME280;40636;52.424;-1.948;2024-03-02T07:01:12;97312.91;;;2.91;88.20
43364;BME280;40636;52.424;-1.948;2024-03-02T07:03:39;97312.09;;;2.89;88.42
43364;BME280;40636;52.424;-1.948;2024-03-02T07:06:06;97307.81;;;2.88;87.96
43364;BME280;40636;52.424;-1.948;2024-03-02T07:08:33;97313.81;;;2.87;88.55
43364;BME280;40636;52.424;-1.948;2024-03-02T07:11:00;97312.13;;;2.86;88.37
43364;BME280;40636;52.424;-1.948;2024-03-02T07:13:27;97312.97;;;2.86;88.19
43364;BME280;40636;52.424;-1.948;2024-03-02T07:15:54;97318.13;;;2.85;88.47
43364;BME280;40636;52.424;-1.948;2024-03-02T07:18:21;97312.19;;;2.83;88.43
43364;BME280;40636;52.424;-1.948;2024-03-02T07:20:48;97292.63;;;2.79;88.46
43364;BME280;40636;52.424;-1.948;2024-03-02T07:23:16;97308.09;;;2.76;88.37
43364;BME280;40636;52.424;-1.948;2024-03-02T07:25:43;97304.72;;;2.74;88.24
43364;BME280;40636;52.424;-1.948;2024-03-02T07:28:12;97300.50;;;2.71;88.72
43364;BME280;40636;52.424;-1.948;2024-03-02T07:30:41;97297.00;;;2.75;88.82
43364;BME280;40636;52.424;-1.948;2024-03-02T07:33:07;97297.00;;;2.75;88.88
43364;BME280;40636;52.424;-1.948;2024-03-02T07:35:34;97291.03;;;2.75;88.50
43364;BME280;40636;52.424;-1.948;2024-03-02T07:38:01;97287.63;;;2.74;88.59
43364;BME280;40636;52.424;-1.948;2024-03-02T07:40:28;97292.78;;;2.73;88.88
43364;BME280;40636;52.424;-1.948;2024-03-02T07:42:55;97287.63;;;2.74;88.54
43364;BME280;40636;52.424;-1.948;2024-03-02T07:45:22;97293.59;;;2.75;88.83
43364;BME280;40636;52.424;-1.948;2024-03-02T07:47:49;97294.34;;;2.78;89.03
43364;BME280;40636;52.424;-1.948;2024-03-02T07:50:17;97288.31;;;2.81;89.62
43364;BME280;40636;52.424;-1.948;2024-03-02T07:52:44;97295.94;;;2.84;89.25
43364;BME280;40636;52.424;-1.948;2024-03-02T07:55:11;97289.91;;;2.86;89.52
43364;BME280;40636;52.424;-1.948;2024-03-02T07:57:37;97287.31;;;2.88;89.18
43364;BME280;40636;52.424;-1.948;2024-03-02T08:00:07;97289.03;;;2.89;89.80
43364;BME280;40636;52.424;-1.948;2024-03-02T08:02:35;97283.78;;;2.94;89.79
43364;BME280;40636;52.424;-1.948;2024-03-02T08:05:02;97288.03;;;2.95;89.47
43364;BME280;40636;52.424;-1.948;2024-03-02T08:07:29;97291.38;;;2.98;89.32
43364;BME280;40636;52.424;-1.948;2024-03-02T08:09:56;97287.06;;;3.00;89.81
43364;BME280;40636;52.424;-1.948;2024-03-02T08:12:23;97291.25;;;3.04;89.35
43364;BME280;40636;52.424;-1.948;2024-03-02T08:14:50;97286.09;;;3.06;89.48
43364;BME280;40636;52.424;-1.948;2024-03-02T08:17:17;97285.16;;;3.08;89.49
43364;BME280;40636;52.424;-1.948;2024-03-02T08:19:44;97279.94;;;3.13;90.11
43364;BME280;40636;52.424;-1.948;2024-03-02T08:22:11;97284.16;;;3.15;90.21
43364;BME280;40636;52.424;-1.948;2024-03-02T08:24:38;97278.94;;;3.18;90.32
43364;BME280;40636;52.424;-1.948;2024-03-02T08:27:05;97282.31;;;3.21;90.16
43364;BME280;40636;52.424;-1.948;2024-03-02T08:29:32;97289.94;;;3.24;90.04
43364;BME280;40636;52.424;-1.948;2024-03-02T08:31:59;97276.16;;;3.28;90.21
43364;BME280;40636;52.424;-1.948;2024-03-02T08:34:26;97282.91;;;3.32;90.28
43364;BME280;40636;52.424;-1.948;2024-03-02T08:36:53;97276.75;;;3.39;90.60
43364;BME280;40636;52.424;-1.948;2024-03-02T08:39:20;97273.22;;;3.43;90.27
43364;BME280;40636;52.424;-1.948;2024-03-02T08:41:47;97288.50;;;3.49;90.38
43364;BME280;40636;52.424;-1.948;2024-03-02T08:44:14;97278.16;;;3.52;90.25
43364;BME280;40636;52.424;-1.948;2024-03-02T08:46:41;97275.47;;;3.57;90.38
43364;BME280;40636;52.424;-1.948;2024-03-02T08:49:09;97272.72;;;3.64;90.46
43364;BME280;40636;52.424;-1.948;2024-03-02T08:51:36;97267.50;;;3.67;90.87
43364;BME280;40636;52.424;-1.948;2024-03-02T08:54:03;97272.47;;;3.73;90.63
43364;BME280;40636;52.424;-1.948;2024-03-02T08:56:31;97263.72;;;3.80;90.69
43364;BME280;40636;52.424;-1.948;2024-03-02T08:58:58;97272.13;;;3.87;90.66
43364;BME280;40636;52.424;-1.948;2024-03-02T09:01:25;97263.38;;;3.94;90.81
43364;BME280;40636;52.424;-1.948;2024-03-02T09:03:52;97270.94;;;3.99;90.81
43364;BME280;40636;52.424;-1.948;2024-03-02T09:06:19;97275.06;;;4.04;90.45
43364;BME280;40636;52.424;-1.948;2024-03-02T09:08:48;97273.25;;;4.09;90.76
43364;BME280;40636;52.424;-1.948;2024-03-02T09:11:16;97272.28;;;4.13;90.70
43364;BME280;40636;52.424;-1.948;2024-03-02T09:13:43;97272.16;;;4.18;90.23
43364;BME280;40636;52.424;-1.948;2024-03-02T09:16:10;97267.72;;;4.23;90.51
43364;BME280;40636;52.424;-1.948;2024-03-02T09:18:38;97264.09;;;4.30;90.21
43364;BME280;40636;52.424;-1.948;2024-03-02T09:21:05;97275.97;;;4.34;90.52
43364;BME280;40636;52.424;-1.948;2024-03-02T09:23:33;97274.22;;;4.36;90.35
43364;BME280;40636;52.424;-1.948;2024-03-02T09:26:00;97275.75;;;4.42;90.41
43364;BME280;40636;52.424;-1.948;2024-03-02T09:28:27;97272.22;;;4.46;90.01
43364;BME280;40636;52.424;-1.948;2024-03-02T09:30:54;97271.19;;;4.52;90.32
43364;BME280;40636;52.424;-1.948;2024-03-02T09:33:26;97271.03;;;4.58;90.27
43364;BME280;40636;52.424;-1.948;2024-03-02T09:35:53;97269.22;;;4.61;89.89
43364;BME280;40636;52.424;-1.948;2024-03-02T09:38:20;97269.91;;;4.68;90.13
43364;BME280;40636;52.424;-1.948;2024-03-02T09:40:48;97268.13;;;4.70;89.86
43364;BME280;40636;52.424;-1.948;2024-03-02T09:43:15;97268.03;;;4.73;89.68
43364;BME280;40636;52.424;-1.948;2024-03-02T09:45:42;97263.59;;;4.78;89.77
43364;BME280;40636;52.424;-1.948;2024-03-02T09:48:11;97267.75;;;4.82;89.84
43364;BME280;40636;52.424;-1.948;2024-03-02T09:50:38;97269.34;;;4.86;89.64
43364;BME280;40636;52.424;-1.948;2024-03-02T09:53:05;97270.94;;;4.90;89.47
43364;BME280;40636;52.424;-1.948;2024-03-02T09:55:33;97266.59;;;4.92;89.39
43364;BME280;40636;52.424;-1.948;2024-03-02T09:58:03;97269.16;;;4.92;89.38
43364;BME280;40636;52.424;-1.948;2024-03-02T10:00:30;97273.38;;;4.95;88.96
43364;BME280;40636;52.424;-1.948;2024-03-02T10:02:56;97272.53;;;4.94;88.95
43364;BME280;40636;52.424;-1.948;2024-03-02T10:05:26;97279.25;;;4.98;88.70
43364;BME280;40636;52.424;-1.948;2024-03-02T10:08:02;97284.13;;;5.07;88.79
43364;BME280;40636;52.424;-1.948;2024-03-02T10:10:40;97285.22;;;5.28;89.21
43364;BME280;40636;52.424;-1.948;2024-03-02T10:13:12;97277.00;;;5.44;89.45
43364;BME280;40636;52.424;-1.948;2024-03-02T10:15:40;97283.69;;;5.49;88.88
43364;BME280;40636;52.424;-1.948;2024-03-02T10:18:12;97297.59;;;5.44;88.14
43364;BME280;40636;52.424;-1.948;2024-03-02T10:20:40;97292.53;;;5.40;87.51
43364;BME280;40636;52.424;-1.948;2024-03-02T10:23:11;97307.19;;;5.38;86.84
43364;BME280;40636;52.424;-1.948;2024-03-02T10:25:39;97314.91;;;5.38;86.80
43364;BME280;40636;52.424;-1.948;2024-03-02T10:28:20;97325.25;;;5.37;86.35
43364;BME280;40636;52.424;-1.948;2024-03-02T10:30:47;97331.16;;;5.40;86.16
43364;BME280;40636;52.424;-1.948;2024-03-02T10:33:17;97332.00;;;5.41;85.86
43364;BME280;40636;52.424;-1.948;2024-03-02T10:35:44;97333.88;;;5.36;85.63
43364;BME280;40636;52.424;-1.948;2024-03-02T10:38:11;97351.22;;;5.29;85.42
43364;BME280;40636;52.424;-1.948;2024-03-02T10:40:38;97340.53;;;5.14;84.47
43364;BME280;40636;52.424;-1.948;2024-03-02T10:43:05;97362.38;;;5.00;83.84
43364;BME280;40636;52.424;-1.948;2024-03-02T10:45:33;97363.53;;;4.90;84.15
43364;BME280;40636;52.424;-1.948;2024-03-02T10:48:02;97362.84;;;4.84;84.05
43364;BME280;40636;52.424;-1.948;2024-03-02T10:50:29;97361.41;;;4.75;83.87
43364;BME280;40636;52.424;-1.948;2024-03-02T10:52:57;97372.78;;;4.66;83.74
43364;BME280;40636;52.424;-1.948;2024-03-02T10:55:24;97366.94;;;4.60;83.94
43364;BME280;40636;52.424;-1.948;2024-03-02T10:57:52;97382.31;;;4.61;83.70
43364;BME280;40636;52.424;-1.948;2024-03-02T11:00:24;97375.53;;;4.59;83.89
43364;BME280;40636;52.424;-1.948;2024-03-02T11:02:57;97388.44;;;4.57;84.15
43364;BME280;40636;52.424;-1.948;2024-03-02T11:05:29;97382.44;;;4.57;83.99
43364;BME280;40636;52.424;-1.948;2024-03-02T11:08:02;97380.88;;;4.51;84.17
43364;BME280;40636;52.424;-1.948;2024-03-02T11:11:06;97374.22;;;4.44;84.20
43364;BME280;40636;52.424;-1.948;2024-03-02T11:13:34;97379.19;;;4.50;83.96
43364;BME280;40636;52.424;-1.948;2024-03-02T11:16:10;97388.69;;;4.48;84.05
43364;BME280;40636;52.424;-1.948;2024-03-02T11:18:40;97392.13;;;4.47;84.44
43364;BME280;40636;52.424;-1.948;2024-03-02T11:21:08;97403.97;;;4.53;84.26
43364;BME280;40636;52.424;-1.948;2024-03-02T11:23:35;97406.38;;;4.59;84.56
43364;BME280;40636;52.424;-1.948;2024-03-02T11:26:22;97416.59;;;4.62;84.26
43364;BME280;40636;52.424;-1.948;2024-03-02T11:28:50;97407.13;;;4.64;84.37
43364;BME280;40636;52.424;-1.948;2024-03-02T11:31:17;97408.91;;;4.60;83.87
43364;BME280;40636;52.424;-1.948;2024-03-02T11:33:44;97400.34;;;4.60;84.12
43364;BME280;40636;52.424;-1.948;2024-03-02T11:36:11;97403.91;;;4.56;83.79
43364;BME280;40636;52.424;-1.948;2024-03-02T11:38:38;97416.81;;;4.53;83.77
43364;BME280;40636;52.424;-1.948;2024-03-02T11:41:07;97411.78;;;4.50;83.45
43364;BME280;40636;52.424;-1.948;2024-03-02T11:43:38;97409.16;;;4.51;83.56
43364;BME280;40636;52.424;-1.948;2024-03-02T11:46:06;97416.03;;;4.51;83.30
43364;BME280;40636;52.424;-1.948;2024-03-02T11:48:39;97415.19;;;4.50;83.52
43364;BME280;40636;52.424;-1.948;2024-03-02T11:51:06;97424.50;;;4.54;83.82
43364;BME280;40636;52.424;-1.948;2024-03-02T11:53:33;97429.63;;;4.54;83.99
43364;BME280;40636;52.424;-1.948;2024-03-02T11:56:02;97434.88;;;4.51;83.50
43364;BME280;40636;52.424;-1.948;2024-03-02T11:58:30;97437.28;;;4.57;83.35
43364;BME280;40636;52.424;-1.948;2024-03-02T12:00:57;97433.78;;;4.60;83.22
43364;BME280;40636;52.424;-1.948;2024-03-02T12:03:25;97430.19;;;4.67;83.50
43364;BME280;40636;52.424;-1.948;2024-03-02T12:05:53;97432.59;;;4.73;83.37
43364;BME280;40636;52.424;-1.948;2024-03-02T12:08:21;97432.50;;;4.76;83.30
43364;BME280;40636;52.424;-1.948;2024-03-02T12:10:59;97432.34;;;4.82;83.20
43364;BME280;40636;52.424;-1.948;2024-03-02T12:13:28;97434.13;;;4.80;82.97
43364;BME280;40636;52.424;-1.948;2024-03-02T12:15:55;97434.91;;;4.82;82.67
43364;BME280;40636;52.424;-1.948;2024-03-02T12:18:23;97433.19;;;4.83;82.23
43364;BME280;40636;52.424;-1.948;2024-03-02T12:20:50;97433.97;;;4.85;82.60
43364;BME280;40636;52.424;-1.948;2024-03-02T12:23:25;97435.53;;;4.90;82.39
43364;BME280;40636;52.424;-1.948;2024-03-02T12:25:53;97440.59;;;4.93;82.23
43364;BME280;40636;52.424;-1.948;2024-03-02T12:28:20;97430.34;;;4.92;82.65
43364;BME280;40636;52.424;-1.948;2024-03-02T12:30:47;97430.31;;;4.93;82.41
43364;BME280;40636;52.424;-1.948;2024-03-02T12:33:16;97425.91;;;4.97;82.24
43364;BME280;40636;52.424;-1.948;2024-03-02T12:35:43;97422.38;;;5.01;82.24
43364;BME280;40636;52.424;-1.948;2024-03-02T12:38:10;97423.13;;;5.04;82.04
43364;BME280;40636;52.424;-1.948;2024-03-02T12:40:38;97423.94;;;5.06;82.42
43364;BME280;40636;52.424;-1.948;2024-03-02T12:43:05;97429.16;;;5.03;82.09
43364;BME280;40636;52.424;-1.948;2024-03-02T12:45:34;97425.72;;;5.04;82.37
43364;BME280;40636;52.424;-1.948;2024-03-02T12:48:01;97433.47;;;5.03;82.06
43364;BME280;40636;52.424;-1.948;2024-03-02T12:50:29;97432.66;;;5.01;82.46
43364;BME280;40636;52.424;-1.948;2024-03-02T12:52:56;97432.72;;;4.99;82.29
43364;BME280;40636;52.424;-1.948;2024-03-02T12:55:23;97431.81;;;5.00;82.49
43364;BME280;40636;52.424;-1.948;2024-03-02T12:57:53;97437.84;;;4.99;82.27
43364;BME280;40636;52.424;-1.948;2024-03-02T13:00:21;97438.69;;;5.00;82.46
43364;BME280;40636;52.424;-1.948;2024-03-02T13:02:50;97443.03;;;4.98;82.60
43364;BME280;40636;52.424;-1.948;2024-03-02T13:05:18;97442.97;;;5.01;82.93
43364;BME280;40636;52.424;-1.948;2024-03-02T13:07:50;97431.81;;;5.00;82.89
43364;BME280;40636;52.424;-1.948;2024-03-02T13:10:17;97431.75;;;5.03;83.01
43364;BME280;40636;52.424;-1.948;2024-03-02T13:12:45;97436.00;;;5.04;83.11
43364;BME280;40636;52.424;-1.948;2024-03-02T13:15:12;97438.53;;;5.06;83.01
43364;BME280;40636;52.424;-1.948;2024-03-02T13:17:45;97430.72;;;5.09;82.81